sensor_id;sensor_type;location;lat;lon;timestamp;P1;durP1;ratioP1;P2;durP2;ratioP2
65613;SDS011;52283;49.292;10.572;2023-04-25T00:01:02;3.85;;;3.15;;
65613;SDS011;52283;49.292;10.572;2023-04-25T00:03:29;5.30;;;3.33;;
65613;SDS011;52283;49.292;10.572;2023-04-25T00:05:58;4.38;;;3.67;;
65613;SDS011;52283;49.292;10.572;2023-04-25T00:08:26;4.10;;;2.78;;
65613;SDS011;52283;49.292;10.572;2023-04-25T00:10:53;3.45;;;3.15;;
65613;SDS011;52283;49.292;10.572;2023-04-25T00:13:19;4.22;;;3.25;;
65613;SDS011;52283;49.292;10.572;2023-04-25T00:15:46;3.95;;;3.33;;
65613;SDS011;52283;49.292;10.572;2023-04-25T00:18:13;4.68;;;3.75;;
65613;SDS011;52283;49.292;10.572;2023-04-25T00:20:39;4.95;;;3.60;;
65613;SDS011;52283;49.292;10.572;2023-04-25T00:23:12;4.75;;;3.03;;
65613;SDS011;52283;49.292;10.572;2023-04-25T00:25:42;5.47;;;3.70;;
65613;SDS011;52283;49.292;10.572;2023-04-25T00:28:09;5.20;;;3.70;;
65613;SDS011;52283;49.292;10.572;2023-04-25T00:30:35;6.57;;;4.05;;
65613;SDS011;52283;49.292;10.572;2023-04-25T00:33:02;6.82;;;3.80;;
65613;SDS011;52283;49.292;10.572;2023-04-25T00:35:28;4.85;;;3.67;;
65613;SDS011;52283;49.292;10.572;2023-04-25T00:37:55;5.15;;;3.85;;
65613;SDS011;52283;49.292;10.572;2023-04-25T00:40:22;10.07;;;4.45;;
65613;SDS011;52283;49.292;10.572;2023-04-25T00:42:50;6.10;;;4.03;;
65613;SDS011;52283;49.292;10.572;2023-04-25T00:45:18;5.90;;;4.47;;
65613;SDS011;52283;49.292;10.572;2023-04-25T00:47:45;8.18;;;4.15;;
65613;SDS011;52283;49.292;10.572;2023-04-25T00:50:13;7.97;;;4.15;;
65613;SDS011;52283;49.292;10.572;2023-04-25T00:52:41;7.28;;;3.70;;
65613;SDS011;52283;49.292;10.572;2023-04-25T00:55:10;4.75;;;3.35;;
65613;SDS011;52283;49.292;10.572;2023-04-25T00:57:39;7.40;;;4.35;;
65613;SDS011;52283;49.292;10.572;2023-04-25T01:00:06;5.70;;;4.22;;
65613;SDS011;52283;49.292;10.572;2023-04-25T01:02:36;4.55;;;3.83;;
65613;SDS011;52283;49.292;10.572;2023-04-25T01:05:03;6.13;;;3.92;;
65613;SDS011;52283;49.292;10.572;2023-04-25T01:07:30;7.07;;;4.35;;
65613;SDS011;52283;49.292;10.572;2023-04-25T01:09:57;6.32;;;4.05;;
65613;SDS011;52283;49.292;10.572;2023-04-25T01:12:24;8.77;;;5.00;;
65613;SDS011;52283;49.292;10.572;2023-04-25T01:14:52;5.63;;;3.88;;
65613;SDS011;52283;49.292;10.572;2023-04-25T01:17:18;7.63;;;4.10;;
65613;SDS011;52283;49.292;10.572;2023-04-25T01:19:46;7.50;;;4.72;;
65613;SDS011;52283;49.292;10.572;2023-04-25T01:22:15;5.65;;;4.45;;
65613;SDS011;52283;49.292;10.572;2023-04-25T01:24:41;7.70;;;4.50;;
65613;SDS011;52283;49.292;10.572;2023-04-25T01:27:08;9.63;;;5.13;;
65613;SDS011;52283;49.292;10.572;2023-04-25T01:29:35;6.88;;;5.65;;
65613;SDS011;52283;49.292;10.572;2023-04-25T01:32:02;12.07;;;4.90;;
65613;SDS011;52283;49.292;10.572;2023-04-25T01:34:29;6.35;;;4.68;;
65613;SDS011;52283;49.292;10.572;2023-04-25T01:36:56;11.30;;;4.55;;
65613;SDS011;52283;49.292;10.572;2023-04-25T01:39:24;6.88;;;4.35;;
65613;SDS011;52283;49.292;10.572;2023-04-25T01:41:50;10.52;;;5.40;;
65613;SDS011;52283;49.292;10.572;2023-04-25T01:44:17;6.28;;;4.80;;
65613;SDS011;52283;49.292;10.572;2023-04-25T01:46:43;9.20;;;5.28;;
65613;SDS011;52283;49.292;10.572;2023-04-25T01:49:10;7.13;;;5.10;;
65613;SDS011;52283;49.292;10.572;2023-04-25T01:51:36;7.50;;;4.85;;
65613;SDS011;52283;49.292;10.572;2023-04-25T01:54:03;8.68;;;5.15;;
65613;SDS011;52283;49.292;10.572;2023-04-25T01:56:31;7.97;;;5.28;;
65613;SDS011;52283;49.292;10.572;2023-04-25T01:58:58;8.02;;;5.30;;
65613;SDS011;52283;49.292;10.572;2023-04-25T02:01:25;9.90;;;5.20;;
65613;SDS011;52283;49.292;10.572;2023-04-25T02:03:51;9.23;;;5.68;;
65613;SDS011;52283;49.292;10.572;2023-04-25T02:06:18;8.90;;;5.63;;
65613;SDS011;52283;49.292;10.572;2023-04-25T02:08:44;9.18;;;5.63;;
65613;SDS011;52283;49.292;10.572;2023-04-25T02:11:11;10.18;;;6.43;;
65613;SDS011;52283;49.292;10.572;2023-04-25T02:13:39;8.48;;;5.55;;
65613;SDS011;52283;49.292;10.572;2023-04-25T02:16:05;9.13;;;6.00;;
65613;SDS011;52283;49.292;10.572;2023-04-25T02:18:32;7.85;;;5.28;;
65613;SDS011;52283;49.292;10.572;2023-04-25T02:20:58;9.93;;;5.40;;
65613;SDS011;52283;49.292;10.572;2023-04-25T02:23:26;10.43;;;5.53;;
65613;SDS011;52283;49.292;10.572;2023-04-25T02:25:52;10.88;;;5.60;;
65613;SDS011;52283;49.292;10.572;2023-04-25T02:28:20;16.55;;;6.35;;
65613;SDS011;52283;49.292;10.572;2023-04-25T02:30:48;9.68;;;5.78;;
65613;SDS011;52283;49.292;10.572;2023-04-25T02:33:14;10.68;;;6.57;;
65613;SDS011;52283;49.292;10.572;2023-04-25T02:35:42;7.50;;;5.50;;
65613;SDS011;52283;49.292;10.572;2023-04-25T02:38:08;11.13;;;6.05;;
65613;SDS011;52283;49.292;10.572;2023-04-25T02:40:35;9.75;;;5.55;;
65613;SDS011;52283;49.292;10.572;2023-04-25T02:43:01;8.43;;;5.38;;
65613;SDS011;52283;49.292;10.572;2023-04-25T02:45:27;10.05;;;6.55;;
65613;SDS011;52283;49.292;10.572;2023-04-25T02:47:55;7.85;;;5.70;;
65613;SDS011;52283;49.292;10.572;2023-04-25T02:50:22;8.40;;;5.15;;
65613;SDS011;52283;49.292;10.572;2023-04-25T02:52:48;8.95;;;5.63;;
65613;SDS011;52283;49.292;10.572;2023-04-25T02:55:15;8.45;;;6.07;;
65613;SDS011;52283;49.292;10.572;2023-04-25T02:57:42;11.05;;;6.03;;
65613;SDS011;52283;49.292;10.572;2023-04-25T03:00:08;9.27;;;6.20;;
65613;SDS011;52283;49.292;10.572;2023-04-25T03:02:36;12.73;;;5.40;;
65613;SDS011;52283;49.292;10.572;2023-04-25T03:05:04;9.10;;;5.43;;
65613;SDS011;52283;49.292;10.572;2023-04-25T03:07:31;7.80;;;6.03;;
65613;SDS011;52283;49.292;10.572;2023-04-25T03:09:57;9.60;;;5.88;;
65613;SDS011;52283;49.292;10.572;2023-04-25T03:12:24;9.65;;;5.68;;
65613;SDS011;52283;49.292;10.572;2023-04-25T03:14:50;9.13;;;5.32;;
65613;SDS011;52283;49.292;10.572;2023-04-25T03:17:17;9.32;;;5.68;;
65613;SDS011;52283;49.292;10.572;2023-04-25T03:19:43;7.40;;;5.13;;
65613;SDS011;52283;49.292;10.572;2023-04-25T03:22:11;9.13;;;5.53;;
65613;SDS011;52283;49.292;10.572;2023-04-25T03:24:37;6.95;;;4.35;;
65613;SDS011;52283;49.292;10.572;2023-04-25T03:27:04;9.32;;;5.15;;
65613;SDS011;52283;49.292;10.572;2023-04-25T03:29:30;9.30;;;5.43;;
65613;SDS011;52283;49.292;10.572;2023-04-25T03:31:57;6.15;;;4.97;;
65613;SDS011;52283;49.292;10.572;2023-04-25T03:34:23;10.23;;;5.25;;
65613;SDS011;52283;49.292;10.572;2023-04-25T03:36:50;8.25;;;5.10;;
65613;SDS011;52283;49.292;10.572;2023-04-25T03:39:18;8.20;;;5.43;;
65613;SDS011;52283;49.292;10.572;2023-04-25T03:41:45;9.70;;;4.93;;
65613;SDS011;52283;49.292;10.572;2023-04-25T03:44:11;10.23;;;6.20;;
65613;SDS011;52283;49.292;10.572;2023-04-25T03:46:38;10.02;;;5.40;;
65613;SDS011;52283;49.292;10.572;2023-04-25T03:49:04;8.88;;;5.90;;
65613;SDS011;52283;49.292;10.572;2023-04-25T03:51:31;11.23;;;6.05;;
65613;SDS011;52283;49.292;10.572;2023-04-25T03:53:57;9.30;;;5.82;;
65613;SDS011;52283;49.292;10.572;2023-04-25T03:56:25;10.73;;;5.90;;
65613;SDS011;52283;49.292;10.572;2023-04-25T03:58:52;10.15;;;7.10;;
65613;SDS011;52283;49.292;10.572;2023-04-25T04:01:18;8.60;;;5.80;;
65613;SDS011;52283;49.292;10.572;2023-04-25T04:03:45;10.93;;;7.03;;
65613;SDS011;52283;49.292;10.572;2023-04-25T04:06:12;7.38;;;5.53;;
65613;SDS011;52283;49.292;10.572;2023-04-25T04:08:38;7.13;;;5.80;;
65613;SDS011;52283;49.292;10.572;2023-04-25T04:11:05;9.65;;;5.78;;
65613;SDS011;52283;49.292;10.572;2023-04-25T04:13:32;6.53;;;5.63;;
65613;SDS011;52283;49.292;10.572;2023-04-25T04:15:59;10.25;;;6.68;;
65613;SDS011;52283;49.292;10.572;2023-04-25T04:18:25;7.78;;;5.90;;
65613;SDS011;52283;49.292;10.572;2023-04-25T04:20:52;10.35;;;5.97;;
65613;SDS011;52283;49.292;10.572;2023-04-25T04:23:18;10.48;;;7.00;;
65613;SDS011;52283;49.292;10.572;2023-04-25T04:25:45;10.50;;;6.57;;
65613;SDS011;52283;49.292;10.572;2023-04-25T04:28:12;9.43;;;6.63;;
65613;SDS011;52283;49.292;10.572;2023-04-25T04:30:40;16.02;;;7.25;;
65613;SDS011;52283;49.292;10.572;2023-04-25T04:33:07;10.80;;;6.38;;
65613;SDS011;52283;49.292;10.572;2023-04-25T04:35:34;13.82;;;6.88;;
65613;SDS011;52283;49.292;10.572;2023-04-25T04:38:00;11.45;;;6.60;;
65613;SDS011;52283;49.292;10.572;2023-04-25T04:40:27;11.75;;;6.90;;
65613;SDS011;52283;49.292;10.572;2023-04-25T04:42:55;12.18;;;6.65;;
65613;SDS011;52283;49.292;10.572;2023-04-25T04:45:22;11.80;;;6.15;;
65613;SDS011;52283;49.292;10.572;2023-04-25T04:47:50;12.80;;;6.68;;
65613;SDS011;52283;49.292;10.572;2023-04-25T04:50:17;9.95;;;6.80;;
65613;SDS011;52283;49.292;10.572;2023-04-25T04:52:44;11.20;;;6.38;;
65613;SDS011;52283;49.292;10.572;2023-04-25T04:55:10;10.05;;;7.00;;
65613;SDS011;52283;49.292;10.572;2023-04-25T04:57:36;11.82;;;6.32;;
65613;SDS011;52283;49.292;10.572;2023-04-25T05:00:04;9.93;;;8.25;;
65613;SDS011;52283;49.292;10.572;2023-04-25T05:02:35;10.13;;;7.30;;
65613;SDS011;52283;49.292;10.572;2023-04-25T05:05:03;9.73;;;6.55;;
65613;SDS011;52283;49.292;10.572;2023-04-25T05:07:31;10.20;;;6.28;;
65613;SDS011;52283;49.292;10.572;2023-04-25T05:09:57;11.50;;;6.63;;
65613;SDS011;52283;49.292;10.572;2023-04-25T05:12:23;10.35;;;6.50;;
65613;SDS011;52283;49.292;10.572;2023-04-25T05:14:50;13.48;;;6.95;;
65613;SDS011;52283;49.292;10.572;2023-04-25T05:17:16;12.63;;;6.50;;
65613;SDS011;52283;49.292;10.572;2023-04-25T05:19:43;11.32;;;6.63;;
65613;SDS011;52283;49.292;10.572;2023-04-25T05:22:11;13.98;;;7.03;;
65613;SDS011;52283;49.292;10.572;2023-04-25T05:24:37;10.30;;;6.40;;
65613;SDS011;52283;49.292;10.572;2023-04-25T05:27:04;8.70;;;5.90;;
65613;SDS011;52283;49.292;10.572;2023-04-25T05:29:31;9.43;;;5.70;;
65613;SDS011;52283;49.292;10.572;2023-04-25T05:31:57;10.55;;;6.65;;
65613;SDS011;52283;49.292;10.572;2023-04-25T05:34:24;10.18;;;6.18;;
65613;SDS011;52283;49.292;10.572;2023-04-25T05:36:50;10.52;;;6.28;;
65613;SDS011;52283;49.292;10.572;2023-04-25T05:39:18;10.25;;;5.80;;
65613;SDS011;52283;49.292;10.572;2023-04-25T05:41:45;13.00;;;7.55;;
65613;SDS011;52283;49.292;10.572;2023-04-25T05:44:12;9.68;;;6.30;;
65613;SDS011;52283;49.292;10.572;2023-04-25T05:46:38;9.57;;;6.60;;
65613;SDS011;52283;49.292;10.572;2023-04-25T05:49:05;10.23;;;7.00;;
65613;SDS011;52283;49.292;10.572;2023-04-25T05:51:31;9.20;;;6.10;;
65613;SDS011;52283;49.292;10.572;2023-04-25T05:53:58;10.32;;;6.85;;
65613;SDS011;52283;49.292;10.572;2023-04-25T05:56:26;11.00;;;6.38;;
65613;SDS011;52283;49.292;10.572;2023-04-25T05:58:52;14.45;;;6.28;;
65613;SDS011;52283;49.292;10.572;2023-04-25T06:01:21;12.48;;;6.72;;
65613;SDS011;52283;49.292;10.572;2023-04-25T06:03:48;10.50;;;6.72;;
65613;SDS011;52283;49.292;10.572;2023-04-25T06:06:16;11.88;;;7.07;;
65613;SDS011;52283;49.292;10.572;2023-04-25T06:08:42;9.48;;;6.63;;
65613;SDS011;52283;49.292;10.572;2023-04-25T06:11:09;11.93;;;6.40;;
65613;SDS011;52283;49.292;10.572;2023-04-25T06:13:37;10.43;;;6.60;;
65613;SDS011;52283;49.292;10.572;2023-04-25T06:16:04;11.05;;;5.88;;
65613;SDS011;52283;49.292;10.572;2023-04-25T06:18:31;9.13;;;6.07;;
65613;SDS011;52283;49.292;10.572;2023-04-25T06:20:57;11.15;;;6.13;;
65613;SDS011;52283;49.292;10.572;2023-04-25T06:23:24;10.23;;;5.95;;
65613;SDS011;52283;49.292;10.572;2023-04-25T06:25:50;9.40;;;6.75;;
65613;SDS011;52283;49.292;10.572;2023-04-25T06:28:17;11.25;;;6.63;;
65613;SDS011;52283;49.292;10.572;2023-04-25T06:30:44;11.27;;;6.53;;
65613;SDS011;52283;49.292;10.572;2023-04-25T06:33:11;10.93;;;6.32;;
65613;SDS011;52283;49.292;10.572;2023-04-25T06:35:37;10.38;;;6.45;;
65613;SDS011;52283;49.292;10.572;2023-04-25T06:38:04;9.57;;;6.28;;
65613;SDS011;52283;49.292;10.572;2023-04-25T06:40:30;10.82;;;6.28;;
65613;SDS011;52283;49.292;10.572;2023-04-25T06:42:57;12.90;;;7.70;;
65613;SDS011;52283;49.292;10.572;2023-04-25T06:45:24;10.18;;;6.85;;
65613;SDS011;52283;49.292;10.572;2023-04-25T06:47:51;11.25;;;7.15;;
65613;SDS011;52283;49.292;10.572;2023-04-25T06:50:18;9.90;;;6.32;;
65613;SDS011;52283;49.292;10.572;2023-04-25T06:52:44;12.85;;;7.22;;
65613;SDS011;52283;49.292;10.572;2023-04-25T06:55:11;11.68;;;7.35;;
65613;SDS011;52283;49.292;10.572;2023-04-25T06:57:37;8.50;;;6.50;;
65613;SDS011;52283;49.292;10.572;2023-04-25T07:00:04;10.05;;;6.53;;
65613;SDS011;52283;49.292;10.572;2023-04-25T07:02:34;10.10;;;6.50;;
65613;SDS011;52283;49.292;10.572;2023-04-25T07:05:02;10.05;;;6.53;;
65613;SDS011;52283;49.292;10.572;2023-04-25T07:07:29;6.97;;;4.95;;
65613;SDS011;52283;49.292;10.572;2023-04-25T07:09:55;8.73;;;5.70;;
65613;SDS011;52283;49.292;10.572;2023-04-25T07:12:22;11.30;;;6.65;;
65613;SDS011;52283;49.292;10.572;2023-04-25T07:14:48;13.93;;;7.15;;
65613;SDS011;52283;49.292;10.572;2023-04-25T07:17:15;11.18;;;7.30;;
65613;SDS011;52283;49.292;10.572;2023-04-25T07:19:41;13.07;;;7.10;;
65613;SDS011;52283;49.292;10.572;2023-04-25T07:22:09;10.68;;;6.43;;
65613;SDS011;52283;49.292;10.572;2023-04-25T07:24:36;12.95;;;8.15;;
65613;SDS011;52283;49.292;10.572;2023-04-25T07:27:03;14.65;;;8.18;;
65613;SDS011;52283;49.292;10.572;2023-04-25T07:29:29;11.00;;;7.28;;
65613;SDS011;52283;49.292;10.572;2023-04-25T07:31:56;12.52;;;6.95;;
65613;SDS011;52283;49.292;10.572;2023-04-25T07:34:23;16.35;;;8.38;;
65613;SDS011;52283;49.292;10.572;2023-04-25T07:36:49;10.40;;;6.50;;
65613;SDS011;52283;49.292;10.572;2023-04-25T07:39:17;11.82;;;7.70;;
65613;SDS011;52283;49.292;10.572;2023-04-25T07:41:44;12.82;;;6.95;;
65613;SDS011;52283;49.292;10.572;2023-04-25T07:44:10;9.07;;;6.70;;
65613;SDS011;52283;49.292;10.572;2023-04-25T07:46:36;10.48;;;6.22;;
65613;SDS011;52283;49.292;10.572;2023-04-25T07:49:03;10.20;;;7.20;;
65613;SDS011;52283;49.292;10.572;2023-04-25T07:51:29;14.80;;;6.97;;
65613;SDS011;52283;49.292;10.572;2023-04-25T07:53:56;10.45;;;6.35;;
65613;SDS011;52283;49.292;10.572;2023-04-25T07:56:24;10.68;;;6.38;;
65613;SDS011;52283;49.292;10.572;2023-04-25T07:58:50;11.05;;;6.47;;
65613;SDS011;52283;49.292;10.572;2023-04-25T08:01:17;9.52;;;5.65;;
65613;SDS011;52283;49.292;10.572;2023-04-25T08:03:45;7.22;;;5.65;;
65613;SDS011;52283;49.292;10.572;2023-04-25T08:06:11;8.52;;;6.15;;
65613;SDS011;52283;49.292;10.572;2023-04-25T08:08:37;7.63;;;5.15;;
65613;SDS011;52283;49.292;10.572;2023-04-25T08:11:04;6.40;;;4.47;;
65613;SDS011;52283;49.292;10.572;2023-04-25T08:13:32;9.80;;;5.40;;
65613;SDS011;52283;49.292;10.572;2023-04-25T08:15:59;6.72;;;4.13;;
65613;SDS011;52283;49.292;10.572;2023-04-25T08:18:25;8.25;;;4.97;;
65613;SDS011;52283;49.292;10.572;2023-04-25T08:20:52;6.82;;;4.60;;
65613;SDS011;52283;49.292;10.572;2023-04-25T08:23:18;8.18;;;5.32;;
65613;SDS011;52283;49.292;10.572;2023-04-25T08:25:45;11.13;;;4.97;;
65613;SDS011;52283;49.292;10.572;2023-04-25T08:28:11;7.20;;;5.07;;
65613;SDS011;52283;49.292;10.572;2023-04-25T08:30:39;8.43;;;5.68;;
65613;SDS011;52283;49.292;10.572;2023-04-25T08:33:05;7.30;;;4.75;;
65613;SDS011;52283;49.292;10.572;2023-04-25T08:35:32;6.50;;;5.03;;
65613;SDS011;52283;49.292;10.572;2023-04-25T08:37:59;7.38;;;5.22;;
65613;SDS011;52283;49.292;10.572;2023-04-25T08:40:27;8.25;;;5.53;;
65613;SDS011;52283;49.292;10.572;2023-04-25T08:42:55;9.43;;;4.97;;
65613;SDS011;52283;49.292;10.572;2023-04-25T08:45:23;9.93;;;4.97;;
65613;SDS011;52283;49.292;10.572;2023-04-25T08:47:53;7.53;;;4.95;;
65613;SDS011;52283;49.292;10.572;2023-04-25T08:50:22;10.05;;;5.03;;
65613;SDS011;52283;49.292;10.572;2023-04-25T08:52:51;7.32;;;4.00;;
65613;SDS011;52283;49.292;10.572;2023-04-25T08:55:20;6.53;;;3.95;;
65613;SDS011;52283;49.292;10.572;2023-04-25T08:57:47;6.40;;;4.30;;
65613;SDS011;52283;49.292;10.572;2023-04-25T09:00:15;7.07;;;4.30;;
65613;SDS011;52283;49.292;10.572;2023-04-25T09:02:43;4.97;;;2.85;;
65613;SDS011;52283;49.292;10.572;2023-04-25T09:05:11;6.97;;;3.05;;
65613;SDS011;52283;49.292;10.572;2023-04-25T09:07:38;9.23;;;4.47;;
65613;SDS011;52283;49.292;10.572;2023-04-25T09:10:05;5.47;;;4.30;;
65613;SDS011;52283;49.292;10.572;2023-04-25T09:12:32;6.95;;;3.97;;
65613;SDS011;52283;49.292;10.572;2023-04-25T09:15:05;6.90;;;4.78;;
65613;SDS011;52283;49.292;10.572;2023-04-25T09:17:33;8.02;;;4.60;;
65613;SDS011;52283;49.292;10.572;2023-04-25T09:20:07;10.65;;;5.45;;
65613;SDS011;52283;49.292;10.572;2023-04-25T09:22:36;6.70;;;4.43;;
65613;SDS011;52283;49.292;10.572;2023-04-25T09:25:04;4.57;;;4.18;;
65613;SDS011;52283;49.292;10.572;2023-04-25T09:27:34;9.63;;;3.90;;
65613;SDS011;52283;49.292;10.572;2023-04-25T09:30:02;4.45;;;3.95;;
65613;SDS011;52283;49.292;10.572;2023-04-25T09:32:29;6.03;;;3.97;;
65613;SDS011;52283;49.292;10.572;2023-04-25T09:34:57;3.92;;;2.90;;
65613;SDS011;52283;49.292;10.572;2023-04-25T09:37:24;4.45;;;3.35;;
65613;SDS011;52283;49.292;10.572;2023-04-25T09:39:54;4.32;;;3.33;;
65613;SDS011;52283;49.292;10.572;2023-04-25T09:42:22;7.53;;;3.63;;
65613;SDS011;52283;49.292;10.572;2023-04-25T09:44:51;8.73;;;3.55;;
65613;SDS011;52283;49.292;10.572;2023-04-25T09:47:19;6.15;;;3.78;;
65613;SDS011;52283;49.292;10.572;2023-04-25T09:49:47;6.38;;;3.30;;
65613;SDS011;52283;49.292;10.572;2023-04-25T09:52:15;9.95;;;3.58;;
65613;SDS011;52283;49.292;10.572;2023-04-25T09:54:42;5.65;;;3.08;;
65613;SDS011;52283;49.292;10.572;2023-04-25T09:57:14;7.20;;;3.35;;
65613;SDS011;52283;49.292;10.572;2023-04-25T09:59:44;5.80;;;3.08;;
65613;SDS011;52283;49.292;10.572;2023-04-25T10:02:12;5.18;;;2.85;;
65613;SDS011;52283;49.292;10.572;2023-04-25T10:04:39;5.53;;;3.55;;
65613;SDS011;52283;49.292;10.572;2023-04-25T10:07:08;6.78;;;3.88;;
65613;SDS011;52283;49.292;10.572;2023-04-25T10:09:36;3.33;;;2.65;;
65613;SDS011;52283;49.292;10.572;2023-04-25T10:12:05;4.90;;;2.45;;
65613;SDS011;52283;49.292;10.572;2023-04-25T10:14:34;8.30;;;2.63;;
65613;SDS011;52283;49.292;10.572;2023-04-25T10:17:01;6.35;;;3.35;;
65613;SDS011;52283;49.292;10.572;2023-04-25T10:19:28;3.67;;;2.35;;
65613;SDS011;52283;49.292;10.572;2023-04-25T10:21:56;4.13;;;2.83;;
65613;SDS011;52283;49.292;10.572;2023-04-25T10:24:29;5.13;;;2.70;;
65613;SDS011;52283;49.292;10.572;2023-04-25T10:26:55;5.90;;;2.30;;
65613;SDS011;52283;49.292;10.572;2023-04-25T10:29:24;3.95;;;2.20;;
65613;SDS011;52283;49.292;10.572;2023-04-25T10:31:52;3.88;;;2.40;;
65613;SDS011;52283;49.292;10.572;2023-04-25T10:34:19;3.05;;;1.90;;
65613;SDS011;52283;49.292;10.572;2023-04-25T10:36:50;4.95;;;2.05;;
65613;SDS011;52283;49.292;10.572;2023-04-25T10:39:21;3.30;;;2.10;;
65613;SDS011;52283;49.292;10.572;2023-04-25T10:44:18;4.93;;;1.17;;
65613;SDS011;52283;49.292;10.572;2023-04-25T10:46:45;2.42;;;1.70;;
65613;SDS011;52283;49.292;10.572;2023-04-25T10:49:27;3.42;;;1.27;;
65613;SDS011;52283;49.292;10.572;2023-04-25T10:52:10;2.65;;;1.33;;
65613;SDS011;52283;49.292;10.572;2023-04-25T10:54:40;3.05;;;1.67;;
65613;SDS011;52283;49.292;10.572;2023-04-25T10:57:07;3.15;;;1.80;;
65613;SDS011;52283;49.292;10.572;2023-04-25T10:59:34;4.53;;;1.98;;
65613;SDS011;52283;49.292;10.572;2023-04-25T11:02:00;1.63;;;1.30;;
65613;SDS011;52283;49.292;10.572;2023-04-25T11:04:38;4.55;;;1.90;;
65613;SDS011;52283;49.292;10.572;2023-04-25T11:07:09;7.82;;;2.20;;
65613;SDS011;52283;49.292;10.572;2023-04-25T11:09:43;2.72;;;1.88;;
65613;SDS011;52283;49.292;10.572;2023-04-25T11:12:11;4.63;;;1.80;;
65613;SDS011;52283;49.292;10.572;2023-04-25T11:14:38;6.22;;;1.92;;
65613;SDS011;52283;49.292;10.572;2023-04-25T11:17:05;4.70;;;2.10;;
65613;SDS011;52283;49.292;10.572;2023-04-25T11:19:32;3.60;;;2.00;;
65613;SDS011;52283;49.292;10.572;2023-04-25T11:22:00;5.28;;;1.27;;
65613;SDS011;52283;49.292;10.572;2023-04-25T11:24:27;2.42;;;1.67;;
65613;SDS011;52283;49.292;10.572;2023-04-25T11:26:54;3.58;;;1.73;;
65613;SDS011;52283;49.292;10.572;2023-04-25T11:29:21;6.10;;;2.83;;
65613;SDS011;52283;49.292;10.572;2023-04-25T11:31:48;5.20;;;1.98;;
65613;SDS011;52283;49.292;10.572;2023-04-25T11:34:16;5.25;;;2.10;;
65613;SDS011;52283;49.292;10.572;2023-04-25T11:36:43;7.72;;;2.88;;
65613;SDS011;52283;49.292;10.572;2023-04-25T11:39:12;5.95;;;1.73;;
65613;SDS011;52283;49.292;10.572;2023-04-25T11:41:40;1.48;;;1.17;;
65613;SDS011;52283;49.292;10.572;2023-04-25T11:44:07;6.55;;;1.65;;
65613;SDS011;52283;49.292;10.572;2023-04-25T11:46:34;2.08;;;1.60;;
65613;SDS011;52283;49.292;10.572;2023-04-25T11:49:00;2.70;;;1.95;;
65613;SDS011;52283;49.292;10.572;2023-04-25T11:51:27;2.88;;;1.80;;
65613;SDS011;52283;49.292;10.572;2023-04-25T11:53:55;1.38;;;1.23;;
65613;SDS011;52283;49.292;10.572;2023-04-25T11:56:23;2.95;;;1.50;;
65613;SDS011;52283;49.292;10.572;2023-04-25T11:58:56;2.33;;;1.55;;
65613;SDS011;52283;49.292;10.572;2023-04-25T12:01:27;2.72;;;1.75;;
65613;SDS011;52283;49.292;10.572;2023-04-25T12:03:55;1.95;;;1.42;;
65613;SDS011;52283;49.292;10.572;2023-04-25T12:06:25;3.72;;;1.63;;
65613;SDS011;52283;49.292;10.572;2023-04-25T12:08:59;2.85;;;1.25;;
65613;SDS011;52283;49.292;10.572;2023-04-25T12:11:28;4.18;;;1.50;;
65613;SDS011;52283;49.292;10.572;2023-04-25T12:13:56;2.45;;;1.60;;
65613;SDS011;52283;49.292;10.572;2023-04-25T12:16:28;2.15;;;1.60;;
65613;SDS011;52283;49.292;10.572;2023-04-25T12:18:55;5.78;;;1.52;;
65613;SDS011;52283;49.292;10.572;2023-04-25T12:21:22;3.17;;;1.50;;
65613;SDS011;52283;49.292;10.572;2023-04-25T12:23:48;7.78;;;3.10;;
65613;SDS011;52283;49.292;10.572;2023-04-25T12:26:15;6.13;;;1.73;;
65613;SDS011;52283;49.292;10.572;2023-04-25T12:28:47;12.00;;;2.53;;
65613;SDS011;52283;49.292;10.572;2023-04-25T12:31:13;3.25;;;1.50;;
65613;SDS011;52283;49.292;10.572;2023-04-25T12:33:41;2.90;;;1.52;;
65613;SDS011;52283;49.292;10.572;2023-04-25T12:36:08;4.95;;;1.60;;
65613;SDS011;52283;49.292;10.572;2023-04-25T12:38:37;2.80;;;1.45;;
65613;SDS011;52283;49.292;10.572;2023-04-25T12:41:05;5.18;;;1.65;;
65613;SDS011;52283;49.292;10.572;2023-04-25T12:43:32;4.57;;;1.77;;
65613;SDS011;52283;49.292;10.572;2023-04-25T12:46:00;3.88;;;1.58;;
65613;SDS011;52283;49.292;10.572;2023-04-25T12:48:26;5.57;;;2.00;;
65613;SDS011;52283;49.292;10.572;2023-04-25T12:50:53;1.58;;;1.35;;
65613;SDS011;52283;49.292;10.572;2023-04-25T12:53:20;3.70;;;1.75;;
65613;SDS011;52283;49.292;10.572;2023-04-25T12:55:47;3.38;;;1.58;;
65613;SDS011;52283;49.292;10.572;2023-04-25T12:58:14;3.47;;;1.83;;
65613;SDS011;52283;49.292;10.572;2023-04-25T13:00:42;3.65;;;1.30;;
65613;SDS011;52283;49.292;10.572;2023-04-25T13:03:10;4.05;;;1.83;;
65613;SDS011;52283;49.292;10.572;2023-04-25T13:05:37;5.78;;;1.88;;
65613;SDS011;52283;49.292;10.572;2023-04-25T13:08:04;4.78;;;1.50;;
65613;SDS011;52283;49.292;10.572;2023-04-25T13:10:30;4.97;;;1.73;;
65613;SDS011;52283;49.292;10.572;2023-04-25T13:12:58;4.20;;;1.75;;
65613;SDS011;52283;49.292;10.572;2023-04-25T13:15:25;3.78;;;1.42;;
65613;SDS011;52283;49.292;10.572;2023-04-25T13:17:52;4.95;;;2.72;;
65613;SDS011;52283;49.292;10.572;2023-04-25T13:20:20;2.60;;;1.27;;
65613;SDS011;52283;49.292;10.572;2023-04-25T13:22:48;6.47;;;2.78;;
65613;SDS011;52283;49.292;10.572;2023-04-25T13:25:14;3.00;;;1.98;;
65613;SDS011;52283;49.292;10.572;2023-04-25T13:27:41;4.32;;;1.85;;
65613;SDS011;52283;49.292;10.572;2023-04-25T13:30:09;3.47;;;1.83;;
65613;SDS011;52283;49.292;10.572;2023-04-25T13:32:36;7.35;;;2.15;;
65613;SDS011;52283;49.292;10.572;2023-04-25T13:35:03;1.90;;;1.52;;
65613;SDS011;52283;49.292;10.572;2023-04-25T13:37:32;3.45;;;1.70;;
65613;SDS011;52283;49.292;10.572;2023-04-25T13:39:59;4.30;;;2.33;;
65613;SDS011;52283;49.292;10.572;2023-04-25T13:42:27;2.38;;;1.55;;
65613;SDS011;52283;49.292;10.572;2023-04-25T13:44:54;5.88;;;1.85;;
65613;SDS011;52283;49.292;10.572;2023-04-25T13:47:21;7.40;;;2.17;;
65613;SDS011;52283;49.292;10.572;2023-04-25T13:49:48;2.70;;;2.22;;
65613;SDS011;52283;49.292;10.572;2023-04-25T13:52:14;2.40;;;1.73;;
65613;SDS011;52283;49.292;10.572;2023-04-25T13:54:42;1.73;;;1.63;;
65613;SDS011;52283;49.292;10.572;2023-04-25T13:57:09;10.88;;;3.90;;
65613;SDS011;52283;49.292;10.572;2023-04-25T13:59:36;2.05;;;1.40;;
65613;SDS011;52283;49.292;10.572;2023-04-25T14:02:02;5.03;;;1.92;;
65613;SDS011;52283;49.292;10.572;2023-04-25T14:04:29;4.55;;;1.25;;
65613;SDS011;52283;49.292;10.572;2023-04-25T14:06:55;2.10;;;1.25;;
65613;SDS011;52283;49.292;10.572;2023-04-25T14:09:22;3.92;;;1.98;;
65613;SDS011;52283;49.292;10.572;2023-04-25T14:11:52;5.53;;;2.72;;
65613;SDS011;52283;49.292;10.572;2023-04-25T14:14:18;7.22;;;2.97;;
65613;SDS011;52283;49.292;10.572;2023-04-25T14:16:45;3.80;;;2.28;;
65613;SDS011;52283;49.292;10.572;2023-04-25T14:19:13;4.18;;;2.40;;
65613;SDS011;52283;49.292;10.572;2023-04-25T14:21:39;6.82;;;2.15;;
65613;SDS011;52283;49.292;10.572;2023-04-25T14:24:06;3.60;;;1.42;;
65613;SDS011;52283;49.292;10.572;2023-04-25T14:26:33;2.92;;;2.00;;
65613;SDS011;52283;49.292;10.572;2023-04-25T14:29:01;4.30;;;1.73;;
65613;SDS011;52283;49.292;10.572;2023-04-25T14:31:30;5.70;;;2.67;;
65613;SDS011;52283;49.292;10.572;2023-04-25T14:33:57;3.25;;;1.80;;